sensor_id;sensor_type;location;lat;lon;timestamp;P1;durP1;ratioP1;P2;durP2;ratioP2
5117;SDS011;2578;51.622;7.046;2022-09-03T00:00:17;26.10;;;23.70;;
5117;SDS011;2578;51.622;7.046;2022-09-03T00:02:58;25.80;;;23.40;;
5117;SDS011;2578;51.622;7.046;2022-09-03T00:05:28;25.70;;;23.20;;
5117;SDS011;2578;51.622;7.046;2022-09-03T00:08:05;25.03;;;22.63;;
5117;SDS011;2578;51.622;7.046;2022-09-03T00:13:37;25.83;;;23.43;;
5117;SDS011;2578;51.622;7.046;2022-09-03T00:16:08;26.73;;;24.23;;
5117;SDS011;2578;51.622;7.046;2022-09-03T00:18:59;24.80;;;22.50;;
5117;SDS011;2578;51.622;7.046;2022-09-03T00:21:40;25.10;;;22.70;;
5117;SDS011;2578;51.622;7.046;2022-09-03T00:24:12;24.33;;;22.03;;
5117;SDS011;2578;51.622;7.046;2022-09-03T00:26:42;24.07;;;21.80;;
5117;SDS011;2578;51.622;7.046;2022-09-03T00:29:12;24.80;;;22.50;;
5117;SDS011;2578;51.622;7.046;2022-09-03T00:31:43;25.00;;;22.60;;
5117;SDS011;2578;51.622;7.046;2022-09-03T00:34:19;23.97;;;21.70;;
5117;SDS011;2578;51.622;7.046;2022-09-03T00:36:56;24.30;;;22.00;;
5117;SDS011;2578;51.622;7.046;2022-09-03T00:39:23;24.23;;;21.93;;
5117;SDS011;2578;51.622;7.046;2022-09-03T00:51:01;24.00;;;21.70;;
5117;SDS011;2578;51.622;7.046;2022-09-03T00:56:14;23.20;;;21.00;;
5117;SDS011;2578;51.622;7.046;2022-09-03T01:10:00;23.30;;;21.10;;
5117;SDS011;2578;51.622;7.046;2022-09-03T01:15:08;23.80;;;21.57;;
5117;SDS011;2578;51.622;7.046;2022-09-03T01:17:45;23.10;;;20.90;;
5117;SDS011;2578;51.622;7.046;2022-09-03T01:20:31;23.60;;;21.40;;
5117;SDS011;2578;51.622;7.046;2022-09-03T01:25:53;25.47;;;23.07;;
5117;SDS011;2578;51.622;7.046;2022-09-03T01:31:06;22.83;;;20.70;;
5117;SDS011;2578;51.622;7.046;2022-09-03T01:40:02;22.20;;;20.10;;
5117;SDS011;2578;51.622;7.046;2022-09-03T01:42:41;23.10;;;20.90;;
5117;SDS011;2578;51.622;7.046;2022-09-03T01:45:36;23.10;;;20.90;;
5117;SDS011;2578;51.622;7.046;2022-09-03T01:48:18;23.73;;;21.50;;
5117;SDS011;2578;51.622;7.046;2022-09-03T01:50:47;23.30;;;21.10;;
5117;SDS011;2578;51.622;7.046;2022-09-03T02:01:57;22.97;;;20.77;;
5117;SDS011;2578;51.622;7.046;2022-09-03T02:04:27;23.83;;;21.63;;
5117;SDS011;2578;51.622;7.046;2022-09-03T02:06:54;21.97;;;19.87;;
5117;SDS011;2578;51.622;7.046;2022-09-03T02:09:22;21.80;;;19.70;;
5117;SDS011;2578;51.622;7.046;2022-09-03T02:11:55;21.20;;;19.20;;
5117;SDS011;2578;51.622;7.046;2022-09-03T02:14:27;20.70;;;18.70;;
5117;SDS011;2578;51.622;7.046;2022-09-03T02:16:54;19.30;;;17.50;;
5117;SDS011;2578;51.622;7.046;2022-09-03T02:19:22;17.70;;;16.00;;
5117;SDS011;2578;51.622;7.046;2022-09-03T02:21:52;17.60;;;15.90;;
5117;SDS011;2578;51.622;7.046;2022-09-03T02:24:19;16.30;;;14.70;;
5117;SDS011;2578;51.622;7.046;2022-09-03T02:26:45;16.27;;;14.70;;
5117;SDS011;2578;51.622;7.046;2022-09-03T02:29:11;15.70;;;14.20;;
5117;SDS011;2578;51.622;7.046;2022-09-03T02:31:39;14.20;;;12.80;;
5117;SDS011;2578;51.622;7.046;2022-09-03T02:34:05;14.87;;;13.47;;
5117;SDS011;2578;51.622;7.046;2022-09-03T02:36:32;14.10;;;12.70;;
5117;SDS011;2578;51.622;7.046;2022-09-03T02:39:00;14.00;;;12.60;;
5117;SDS011;2578;51.622;7.046;2022-09-03T02:41:25;13.67;;;12.37;;
5117;SDS011;2578;51.622;7.046;2022-09-03T02:46:44;13.10;;;11.80;;
5117;SDS011;2578;51.622;7.046;2022-09-03T02:49:13;13.20;;;11.90;;
5117;SDS011;2578;51.622;7.046;2022-09-03T02:51:39;13.17;;;11.87;;
5117;SDS011;2578;51.622;7.046;2022-09-03T02:54:07;13.20;;;11.90;;
5117;SDS011;2578;51.622;7.046;2022-09-03T02:56:33;13.13;;;11.83;;
5117;SDS011;2578;51.622;7.046;2022-09-03T02:58:59;12.53;;;11.30;;
5117;SDS011;2578;51.622;7.046;2022-09-03T03:01:25;12.90;;;11.60;;
5117;SDS011;2578;51.622;7.046;2022-09-03T03:03:51;13.10;;;11.80;;
5117;SDS011;2578;51.622;7.046;2022-09-03T03:06:17;12.80;;;11.50;;
5117;SDS011;2578;51.622;7.046;2022-09-03T03:08:47;12.73;;;11.50;;
5117;SDS011;2578;51.622;7.046;2022-09-03T03:11:13;12.30;;;11.10;;
5117;SDS011;2578;51.622;7.046;2022-09-03T03:13:42;12.40;;;11.20;;
5117;SDS011;2578;51.622;7.046;2022-09-03T03:16:09;12.03;;;10.83;;
5117;SDS011;2578;51.622;7.046;2022-09-03T03:18:35;11.90;;;10.70;;
5117;SDS011;2578;51.622;7.046;2022-09-03T03:21:04;11.90;;;10.70;;
5117;SDS011;2578;51.622;7.046;2022-09-03T03:23:34;11.70;;;10.50;;
5117;SDS011;2578;51.622;7.046;2022-09-03T03:26:06;11.90;;;10.70;;
5117;SDS011;2578;51.622;7.046;2022-09-03T03:28:33;11.80;;;10.60;;
5117;SDS011;2578;51.622;7.046;2022-09-03T03:31:06;11.60;;;10.40;;
5117;SDS011;2578;51.622;7.046;2022-09-03T03:33:33;10.93;;;9.77;;
5117;SDS011;2578;51.622;7.046;2022-09-03T03:36:03;11.03;;;9.90;;
5117;SDS011;2578;51.622;7.046;2022-09-03T03:38:33;11.43;;;10.23;;
5117;SDS011;2578;51.622;7.046;2022-09-03T03:41:05;11.30;;;10.10;;
5117;SDS011;2578;51.622;7.046;2022-09-03T03:43:32;11.40;;;10.20;;
5117;SDS011;2578;51.622;7.046;2022-09-03T03:45:57;11.20;;;10.00;;
5117;SDS011;2578;51.622;7.046;2022-09-03T03:48:26;11.27;;;10.07;;
5117;SDS011;2578;51.622;7.046;2022-09-03T03:50:52;10.90;;;9.70;;
5117;SDS011;2578;51.622;7.046;2022-09-03T03:53:17;10.73;;;9.50;;
5117;SDS011;2578;51.622;7.046;2022-09-03T03:55:52;10.80;;;9.60;;
5117;SDS011;2578;51.622;7.046;2022-09-03T03:58:22;10.53;;;9.10;;
5117;SDS011;2578;51.622;7.046;2022-09-03T04:00:51;10.53;;;9.00;;
5117;SDS011;2578;51.622;7.046;2022-09-03T04:03:17;10.80;;;9.50;;
5117;SDS011;2578;51.622;7.046;2022-09-03T04:05:43;10.83;;;9.60;;
5117;SDS011;2578;51.622;7.046;2022-09-03T04:08:18;10.47;;;8.97;;
5117;SDS011;2578;51.622;7.046;2022-09-03T04:10:44;10.40;;;8.80;;
5117;SDS011;2578;51.622;7.046;2022-09-03T04:13:10;10.57;;;9.13;;
5117;SDS011;2578;51.622;7.046;2022-09-03T04:15:36;10.33;;;8.80;;
5117;SDS011;2578;51.622;7.046;2022-09-03T04:18:02;10.33;;;8.70;;
5117;SDS011;2578;51.622;7.046;2022-09-03T04:20:27;10.30;;;8.80;;
5117;SDS011;2578;51.622;7.046;2022-09-03T04:22:53;10.50;;;9.10;;
5117;SDS011;2578;51.622;7.046;2022-09-03T04:25:18;10.77;;;9.50;;
5117;SDS011;2578;51.622;7.046;2022-09-03T04:27:44;10.67;;;9.50;;
5117;SDS011;2578;51.622;7.046;2022-09-03T04:30:10;10.90;;;9.70;;
5117;SDS011;2578;51.622;7.046;2022-09-03T04:32:36;11.00;;;9.80;;
5117;SDS011;2578;51.622;7.046;2022-09-03T04:35:23;11.40;;;10.20;;
5117;SDS011;2578;51.622;7.046;2022-09-03T04:37:50;11.60;;;10.40;;
5117;SDS011;2578;51.622;7.046;2022-09-03T04:40:17;11.80;;;10.60;;
5117;SDS011;2578;51.622;7.046;2022-09-03T04:42:43;11.40;;;10.20;;
5117;SDS011;2578;51.622;7.046;2022-09-03T04:45:08;11.00;;;9.80;;
5117;SDS011;2578;51.622;7.046;2022-09-03T04:47:35;10.77;;;9.60;;
5117;SDS011;2578;51.622;7.046;2022-09-03T04:50:02;10.60;;;9.30;;
5117;SDS011;2578;51.622;7.046;2022-09-03T04:52:30;10.57;;;9.10;;
5117;SDS011;2578;51.622;7.046;2022-09-03T04:54:56;10.43;;;8.80;;
5117;SDS011;2578;51.622;7.046;2022-09-03T04:57:22;10.20;;;8.27;;
5117;SDS011;2578;51.622;7.046;2022-09-03T04:59:48;9.87;;;7.60;;
5117;SDS011;2578;51.622;7.046;2022-09-03T05:02:13;9.83;;;7.50;;
5117;SDS011;2578;51.622;7.046;2022-09-03T05:04:39;9.70;;;7.30;;
5117;SDS011;2578;51.622;7.046;2022-09-03T05:07:05;9.67;;;7.20;;
5117;SDS011;2578;51.622;7.046;2022-09-03T05:09:31;9.57;;;6.90;;
5117;SDS011;2578;51.622;7.046;2022-09-03T05:11:57;9.43;;;6.70;;
5117;SDS011;2578;51.622;7.046;2022-09-03T05:14:22;9.60;;;7.20;;
5117;SDS011;2578;51.622;7.046;2022-09-03T05:16:48;9.50;;;7.00;;
5117;SDS011;2578;51.622;7.046;2022-09-03T05:19:14;9.60;;;7.30;;
5117;SDS011;2578;51.622;7.046;2022-09-03T05:21:40;9.50;;;7.40;;
5117;SDS011;2578;51.622;7.046;2022-09-03T05:24:07;9.80;;;7.83;;
5117;SDS011;2578;51.622;7.046;2022-09-03T05:26:35;9.60;;;7.43;;
5117;SDS011;2578;51.622;7.046;2022-09-03T05:29:02;9.27;;;6.63;;
5117;SDS011;2578;51.622;7.046;2022-09-03T05:31:32;9.40;;;6.83;;
5117;SDS011;2578;51.622;7.046;2022-09-03T05:34:01;9.50;;;7.07;;
5117;SDS011;2578;51.622;7.046;2022-09-03T05:36:30;9.93;;;8.00;;
5117;SDS011;2578;51.622;7.046;2022-09-03T05:38:58;9.63;;;7.50;;
5117;SDS011;2578;51.622;7.046;2022-09-03T05:41:26;10.03;;;8.20;;
5117;SDS011;2578;51.622;7.046;2022-09-03T05:43:53;10.63;;;9.30;;
5117;SDS011;2578;51.622;7.046;2022-09-03T05:46:20;12.00;;;10.80;;
5117;SDS011;2578;51.622;7.046;2022-09-03T05:48:51;13.30;;;12.00;;
5117;SDS011;2578;51.622;7.046;2022-09-03T05:51:17;13.90;;;12.60;;
5117;SDS011;2578;51.622;7.046;2022-09-03T05:53:44;14.43;;;13.03;;
5117;SDS011;2578;51.622;7.046;2022-09-03T05:56:12;15.00;;;13.60;;
5117;SDS011;2578;51.622;7.046;2022-09-03T05:58:44;15.00;;;13.60;;
5117;SDS011;2578;51.622;7.046;2022-09-03T06:01:16;16.00;;;14.50;;
5117;SDS011;2578;51.622;7.046;2022-09-03T06:03:44;16.90;;;15.30;;
5117;SDS011;2578;51.622;7.046;2022-09-03T06:06:11;17.30;;;15.70;;
5117;SDS011;2578;51.622;7.046;2022-09-03T06:08:38;17.60;;;16.00;;
5117;SDS011;2578;51.622;7.046;2022-09-03T06:11:05;17.30;;;15.70;;
5117;SDS011;2578;51.622;7.046;2022-09-03T06:13:32;17.40;;;15.80;;
5117;SDS011;2578;51.622;7.046;2022-09-03T06:16:00;17.33;;;15.73;;
5117;SDS011;2578;51.622;7.046;2022-09-03T06:18:28;18.80;;;17.10;;
5117;SDS011;2578;51.622;7.046;2022-09-03T06:20:55;19.27;;;17.47;;
5117;SDS011;2578;51.622;7.046;2022-09-03T06:23:25;19.60;;;17.80;;
5117;SDS011;2578;51.622;7.046;2022-09-03T06:26:08;19.70;;;17.90;;
5117;SDS011;2578;51.622;7.046;2022-09-03T06:28:37;19.97;;;18.17;;
5117;SDS011;2578;51.622;7.046;2022-09-03T06:31:06;21.17;;;19.27;;
5117;SDS011;2578;51.622;7.046;2022-09-03T06:33:34;21.00;;;19.10;;
5117;SDS011;2578;51.622;7.046;2022-09-03T06:36:02;22.60;;;20.60;;
5117;SDS011;2578;51.622;7.046;2022-09-03T06:38:31;22.80;;;20.80;;
5117;SDS011;2578;51.622;7.046;2022-09-03T06:41:02;22.10;;;20.10;;
5117;SDS011;2578;51.622;7.046;2022-09-03T06:43:31;22.20;;;20.20;;
5117;SDS011;2578;51.622;7.046;2022-09-03T06:46:02;22.00;;;20.00;;
5117;SDS011;2578;51.622;7.046;2022-09-03T06:48:31;22.10;;;20.10;;
5117;SDS011;2578;51.622;7.046;2022-09-03T06:50:59;22.33;;;20.23;;
5117;SDS011;2578;51.622;7.046;2022-09-03T06:53:26;22.00;;;19.90;;
5117;SDS011;2578;51.622;7.046;2022-09-03T06:55:59;22.50;;;20.47;;
5117;SDS011;2578;51.622;7.046;2022-09-03T06:58:34;22.30;;;20.20;;
5117;SDS011;2578;51.622;7.046;2022-09-03T07:01:21;22.70;;;20.60;;
5117;SDS011;2578;51.622;7.046;2022-09-03T07:03:59;22.50;;;20.40;;
5117;SDS011;2578;51.622;7.046;2022-09-03T07:06:33;22.77;;;20.67;;
5117;SDS011;2578;51.622;7.046;2022-09-03T07:09:06;22.47;;;20.37;;
5117;SDS011;2578;51.622;7.046;2022-09-03T07:11:33;22.80;;;20.70;;
5117;SDS011;2578;51.622;7.046;2022-09-03T07:14:00;22.80;;;20.70;;
5117;SDS011;2578;51.622;7.046;2022-09-03T07:16:28;23.60;;;21.40;;
5117;SDS011;2578;51.622;7.046;2022-09-03T07:18:56;23.40;;;21.20;;
5117;SDS011;2578;51.622;7.046;2022-09-03T07:21:26;23.60;;;21.50;;
5117;SDS011;2578;51.622;7.046;2022-09-03T07:23:53;24.40;;;22.20;;
5117;SDS011;2578;51.622;7.046;2022-09-03T07:28:47;24.30;;;22.10;;
5117;SDS011;2578;51.622;7.046;2022-09-03T07:31:20;24.20;;;21.97;;
5117;SDS011;2578;51.622;7.046;2022-09-03T07:33:49;24.40;;;22.20;;
5117;SDS011;2578;51.622;7.046;2022-09-03T07:36:23;24.70;;;22.50;;
5117;SDS011;2578;51.622;7.046;2022-09-03T07:38:49;25.50;;;23.20;;
5117;SDS011;2578;51.622;7.046;2022-09-03T07:41:18;25.63;;;23.33;;
5117;SDS011;2578;51.622;7.046;2022-09-03T07:43:44;25.50;;;23.20;;
5117;SDS011;2578;51.622;7.046;2022-09-03T07:46:17;25.90;;;23.53;;
5117;SDS011;2578;51.622;7.046;2022-09-03T07:48:48;25.37;;;23.07;;
5117;SDS011;2578;51.622;7.046;2022-09-03T07:51:15;25.80;;;23.43;;
5117;SDS011;2578;51.622;7.046;2022-09-03T07:53:41;25.20;;;22.90;;
5117;SDS011;2578;51.622;7.046;2022-09-03T07:56:08;25.93;;;23.60;;
5117;SDS011;2578;51.622;7.046;2022-09-03T07:58:35;26.23;;;23.83;;
5117;SDS011;2578;51.622;7.046;2022-09-03T08:01:09;27.00;;;24.60;;
5117;SDS011;2578;51.622;7.046;2022-09-03T08:03:42;25.70;;;23.30;;
5117;SDS011;2578;51.622;7.046;2022-09-03T08:06:10;29.33;;;26.73;;
5117;SDS011;2578;51.622;7.046;2022-09-03T08:08:36;32.00;;;29.30;;
5117;SDS011;2578;51.622;7.046;2022-09-03T08:11:05;30.70;;;28.03;;
5117;SDS011;2578;51.622;7.046;2022-09-03T08:13:38;30.70;;;28.00;;
5117;SDS011;2578;51.622;7.046;2022-09-03T08:16:13;29.40;;;26.70;;
5117;SDS011;2578;51.622;7.046;2022-09-03T08:18:40;30.20;;;27.50;;
5117;SDS011;2578;51.622;7.046;2022-09-03T08:21:07;31.10;;;28.40;;
5117;SDS011;2578;51.622;7.046;2022-09-03T08:23:41;31.97;;;29.17;;
5117;SDS011;2578;51.622;7.046;2022-09-03T08:26:09;29.80;;;27.10;;
5117;SDS011;2578;51.622;7.046;2022-09-03T08:28:35;29.37;;;26.70;;
5117;SDS011;2578;51.622;7.046;2022-09-03T08:31:08;28.97;;;26.27;;
5117;SDS011;2578;51.622;7.046;2022-09-03T08:33:41;29.33;;;26.53;;
5117;SDS011;2578;51.622;7.046;2022-09-03T08:36:12;28.20;;;25.40;;
5117;SDS011;2578;51.622;7.046;2022-09-03T08:38:40;28.77;;;25.97;;
5117;SDS011;2578;51.622;7.046;2022-09-03T08:46:45;29.10;;;26.30;;
5117;SDS011;2578;51.622;7.046;2022-09-03T08:49:31;29.07;;;26.27;;
5117;SDS011;2578;51.622;7.046;2022-09-03T08:52:21;29.40;;;26.60;;
5117;SDS011;2578;51.622;7.046;2022-09-03T08:57:44;30.50;;;27.50;;
5117;SDS011;2578;51.622;7.046;2022-09-03T09:00:12;29.00;;;26.20;;
5117;SDS011;2578;51.622;7.046;2022-09-03T09:05:37;26.80;;;24.20;;
5117;SDS011;2578;51.622;7.046;2022-09-03T09:08:27;26.97;;;24.37;;
5117;SDS011;2578;51.622;7.046;2022-09-03T09:13:43;27.27;;;24.67;;
5117;SDS011;2578;51.622;7.046;2022-09-03T09:22:08;27.80;;;25.20;;
5117;SDS011;2578;51.622;7.046;2022-09-03T09:24:44;28.27;;;25.60;;
5117;SDS011;2578;51.622;7.046;2022-09-03T09:27:12;27.40;;;24.80;;
5117;SDS011;2578;51.622;7.046;2022-09-03T09:29:42;27.40;;;24.70;;
5117;SDS011;2578;51.622;7.046;2022-09-03T09:32:12;28.07;;;25.37;;
5117;SDS011;2578;51.622;7.046;2022-09-03T09:34:40;27.50;;;24.90;;
5117;SDS011;2578;51.622;7.046;2022-09-03T09:37:10;28.20;;;25.50;;
5117;SDS011;2578;51.622;7.046;2022-09-03T09:39:38;28.60;;;25.80;;
5117;SDS011;2578;51.622;7.046;2022-09-03T09:44:36;28.13;;;25.43;;
5117;SDS011;2578;51.622;7.046;2022-09-03T09:47:09;27.63;;;24.87;;
5117;SDS011;2578;51.622;7.046;2022-09-03T09:49:50;28.17;;;25.37;;
5117;SDS011;2578;51.622;7.046;2022-09-03T09:52:18;27.80;;;25.10;;
5117;SDS011;2578;51.622;7.046;2022-09-03T09:54:49;28.10;;;25.20;;
5117;SDS011;2578;51.622;7.046;2022-09-03T09:57:25;27.87;;;25.17;;
5117;SDS011;2578;51.622;7.046;2022-09-03T10:00:03;31.50;;;26.40;;
5117;SDS011;2578;51.622;7.046;2022-09-03T10:02:35;27.70;;;24.90;;
5117;SDS011;2578;51.622;7.046;2022-09-03T10:05:12;29.60;;;25.20;;
5117;SDS011;2578;51.622;7.046;2022-09-03T10:10:29;27.80;;;25.00;;
5117;SDS011;2578;51.622;7.046;2022-09-03T10:13:13;27.50;;;24.70;;
5117;SDS011;2578;51.622;7.046;2022-09-03T10:21:15;28.33;;;25.43;;
5117;SDS011;2578;51.622;7.046;2022-09-03T10:23:55;28.07;;;25.27;;
5117;SDS011;2578;51.622;7.046;2022-09-03T10:26:29;27.70;;;24.90;;
5117;SDS011;2578;51.622;7.046;2022-09-03T10:28:58;28.43;;;25.53;;
5117;SDS011;2578;51.622;7.046;2022-09-03T10:42:25;29.00;;;26.10;;
5117;SDS011;2578;51.622;7.046;2022-09-03T10:45:17;30.03;;;27.13;;
5117;SDS011;2578;51.622;7.046;2022-09-03T10:56:29;27.93;;;25.13;;
5117;SDS011;2578;51.622;7.046;2022-09-03T11:09:29;27.80;;;25.00;;
5117;SDS011;2578;51.622;7.046;2022-09-03T11:12:21;29.00;;;26.00;;
5117;SDS011;2578;51.622;7.046;2022-09-03T11:14:56;27.07;;;24.33;;
5117;SDS011;2578;51.622;7.046;2022-09-03T11:17:37;27.70;;;24.90;;
5117;SDS011;2578;51.622;7.046;2022-09-03T11:22:42;27.40;;;24.60;;
5117;SDS011;2578;51.622;7.046;2022-09-03T11:25:10;27.30;;;24.50;;
5117;SDS011;2578;51.622;7.046;2022-09-03T11:30:11;27.50;;;24.70;;
5117;SDS011;2578;51.622;7.046;2022-09-03T11:33:04;29.17;;;26.27;;
5117;SDS011;2578;51.622;7.046;2022-09-03T11:40:31;27.60;;;24.90;;
5117;SDS011;2578;51.622;7.046;2022-09-03T11:43:11;28.20;;;25.50;;
5117;SDS011;2578;51.622;7.046;2022-09-03T11:46:05;28.50;;;25.80;;
5117;SDS011;2578;51.622;7.046;2022-09-03T11:51:17;27.90;;;25.20;;
5117;SDS011;2578;51.622;7.046;2022-09-03T11:53:52;27.77;;;25.07;;
5117;SDS011;2578;51.622;7.046;2022-09-03T11:56:26;27.80;;;25.10;;
5117;SDS011;2578;51.622;7.046;2022-09-03T11:59:03;28.30;;;25.60;;
5117;SDS011;2578;51.622;7.046;2022-09-03T12:01:29;28.83;;;26.13;;
5117;SDS011;2578;51.622;7.046;2022-09-03T12:03:58;28.40;;;25.70;;
5117;SDS011;2578;51.622;7.046;2022-09-03T12:06:39;28.10;;;25.40;;
5117;SDS011;2578;51.622;7.046;2022-09-03T12:18:04;27.67;;;24.97;;
5117;SDS011;2578;51.622;7.046;2022-09-03T12:20:47;28.10;;;25.40;;
5117;SDS011;2578;51.622;7.046;2022-09-03T12:23:32;27.77;;;25.07;;
5117;SDS011;2578;51.622;7.046;2022-09-03T12:28:46;28.27;;;25.53;;
5117;SDS011;2578;51.622;7.046;2022-09-03T12:33:57;28.60;;;25.87;;
5117;SDS011;2578;51.622;7.046;2022-09-03T12:36:25;29.10;;;26.30;;
5117;SDS011;2578;51.622;7.046;2022-09-03T12:39:10;29.40;;;26.60;;
5117;SDS011;2578;51.622;7.046;2022-09-03T12:44:31;29.60;;;26.80;;
5117;SDS011;2578;51.622;7.046;2022-09-03T12:49:35;28.95;;;26.20;;
5117;SDS011;2578;51.622;7.046;2022-09-03T12:52:45;29.85;;;27.05;;
5117;SDS011;2578;51.622;7.046;2022-09-03T12:57:33;30.98;;;28.08;;
5117;SDS011;2578;51.622;7.046;2022-09-03T13:00:23;30.60;;;27.80;;
5117;SDS011;2578;51.622;7.046;2022-09-03T13:05:31;30.13;;;27.33;;
5117;SDS011;2578;51.622;7.046;2022-09-03T13:08:00;29.10;;;26.30;;
5117;SDS011;2578;51.622;7.046;2022-09-03T13:10:32;29.35;;;26.65;;
5117;SDS011;2578;51.622;7.046;2022-09-03T13:13:06;29.60;;;26.80;;
5117;SDS011;2578;51.622;7.046;2022-09-03T13:18:30;29.90;;;27.10;;
5117;SDS011;2578;51.622;7.046;2022-09-03T13:34:59;29.60;;;26.80;;
5117;SDS011;2578;51.622;7.046;2022-09-03T13:37:39;29.40;;;26.60;;
5117;SDS011;2578;51.622;7.046;2022-09-03T13:43:26;29.80;;;27.00;;
5117;SDS011;2578;51.622;7.046;2022-09-03T13:48:45;29.10;;;26.30;;
5117;SDS011;2578;51.622;7.046;2022-09-03T13:51:37;30.20;;;27.30;;
5117;SDS011;2578;51.622;7.046;2022-09-03T13:54:22;29.30;;;26.50;;
5117;SDS011;2578;51.622;7.046;2022-09-03T13:57:03;28.60;;;25.90;;
5117;SDS011;2578;51.622;7.046;2022-09-03T14:10:49;29.87;;;27.07;;
5117;SDS011;2578;51.622;7.046;2022-09-03T14:22:13;28.67;;;25.93;;
5117;SDS011;2578;51.622;7.046;2022-09-03T14:24:47;29.50;;;26.70;;
5117;SDS011;2578;51.622;7.046;2022-09-03T14:27:20;30.43;;;27.40;;
5117;SDS011;2578;51.622;7.046;2022-09-03T14:30:00;29.23;;;26.53;;
5117;SDS011;2578;51.622;7.046;2022-09-03T14:32:33;28.87;;;26.17;;
5117;SDS011;2578;51.622;7.046;2022-09-03T14:35:17;29.10;;;26.40;;
5117;SDS011;2578;51.622;7.046;2022-09-03T14:38:12;29.20;;;26.50;;
5117;SDS011;2578;51.622;7.046;2022-09-03T14:40:55;30.17;;;27.40;;
5117;SDS011;2578;51.622;7.046;2022-09-03T14:46:14;30.40;;;27.80;;
5117;SDS011;2578;51.622;7.046;2022-09-03T15:05:38;28.63;;;25.93;;
5117;SDS011;2578;51.622;7.046;2022-09-03T15:10:49;29.20;;;26.50;;
5117;SDS011;2578;51.622;7.046;2022-09-03T15:13:23;28.40;;;25.77;;
5117;SDS011;2578;51.622;7.046;2022-09-03T15:21:00;28.53;;;25.93;;
5117;SDS011;2578;51.622;7.046;2022-09-03T15:29:48;28.30;;;25.70;;
5117;SDS011;2578;51.622;7.046;2022-09-03T15:40:57;28.70;;;26.00;;
5117;SDS011;2578;51.622;7.046;2022-09-03T15:43:31;30.83;;;27.93;;
5117;SDS011;2578;51.622;7.046;2022-09-03T15:46:11;28.23;;;25.63;;
5117;SDS011;2578;51.622;7.046;2022-09-03T15:48:59;29.10;;;26.40;;
5117;SDS011;2578;51.622;7.046;2022-09-03T15:51:39;28.80;;;26.00;;
5117;SDS011;2578;51.622;7.046;2022-09-03T15:57:06;28.43;;;25.83;;
5117;SDS011;2578;51.622;7.046;2022-09-03T16:02:06;28.67;;;26.00;;
5117;SDS011;2578;51.622;7.046;2022-09-03T16:20:13;28.50;;;25.90;;
5117;SDS011;2578;51.622;7.046;2022-09-03T16:25:21;28.67;;;26.07;;
5117;SDS011;2578;51.622;7.046;2022-09-03T16:28:08;28.23;;;25.63;;
5117;SDS011;2578;51.622;7.046;2022-09-03T16:36:17;29.60;;;26.70;;
5117;SDS011;2578;51.622;7.046;2022-09-03T16:39:04;27.30;;;24.80;;
5117;SDS011;2578;51.622;7.046;2022-09-03T16:44:25;27.77;;;25.17;;
5117;SDS011;2578;51.622;7.046;2022-09-03T17:04:05;27.47;;;24.97;;
5117;SDS011;2578;51.622;7.046;2022-09-03T17:15:41;27.53;;;24.93;;
5117;SDS011;2578;51.622;7.046;2022-09-03T17:20:51;27.03;;;24.53;;
5117;SDS011;2578;51.622;7.046;2022-09-03T17:34:14;26.63;;;24.23;;
5117;SDS011;2578;51.622;7.046;2022-09-03T17:40:18;27.10;;;24.50;;
5117;SDS011;2578;51.622;7.046;2022-09-03T17:45:25;26.40;;;24.00;;
5117;SDS011;2578;51.622;7.046;2022-09-03T17:48:09;26.50;;;24.10;;
5117;SDS011;2578;51.622;7.046;2022-09-03T17:51:00;27.60;;;25.10;;
5117;SDS011;2578;51.622;7.046;2022-09-03T17:53:37;26.93;;;24.50;;
5117;SDS011;2578;51.622;7.046;2022-09-03T17:56:25;27.07;;;24.57;;
5117;SDS011;2578;51.622;7.046;2022-09-03T17:59:02;28.60;;;25.53;;
5117;SDS011;2578;51.622;7.046;2022-09-03T18:01:49;27.93;;;25.23;;
5117;SDS011;2578;51.622;7.046;2022-09-03T18:04:45;27.60;;;25.00;;
5117;SDS011;2578;51.622;7.046;2022-09-03T18:18:31;25.40;;;23.00;;
5117;SDS011;2578;51.622;7.046;2022-09-03T18:20:59;25.00;;;22.60;;
5117;SDS011;2578;51.622;7.046;2022-09-03T18:27:03;26.27;;;23.87;;
5117;SDS011;2578;51.622;7.046;2022-09-03T18:32:50;24.87;;;22.67;;
5117;SDS011;2578;51.622;7.046;2022-09-03T18:35:35;24.23;;;22.10;;
5117;SDS011;2578;51.622;7.046;2022-09-03T18:38:24;22.90;;;20.80;;
5117;SDS011;2578;51.622;7.046;2022-09-03T18:41:14;24.48;;;21.80;;
5117;SDS011;2578;51.622;7.046;2022-09-03T18:47:03;21.80;;;19.80;;
5117;SDS011;2578;51.622;7.046;2022-09-03T18:50:03;22.20;;;20.20;;
5117;SDS011;2578;51.622;7.046;2022-09-03T18:53:26;21.70;;;19.70;;
5117;SDS011;2578;51.622;7.046;2022-09-03T18:56:42;20.73;;;18.83;;
5117;SDS011;2578;51.622;7.046;2022-09-03T19:08:36;19.50;;;17.70;;
5117;SDS011;2578;51.622;7.046;2022-09-03T19:11:29;19.03;;;17.33;;
5117;SDS011;2578;51.622;7.046;2022-09-03T19:17:51;18.03;;;16.40;;
5117;SDS011;2578;51.622;7.046;2022-09-03T19:20:36;17.70;;;16.10;;
5117;SDS011;2578;51.622;7.046;2022-09-03T19:23:23;17.83;;;16.23;;
5117;SDS011;2578;51.622;7.046;2022-09-03T19:32:42;15.30;;;13.83;;
5117;SDS011;2578;51.622;7.046;2022-09-03T19:35:51;14.77;;;13.37;;
5117;SDS011;2578;51.622;7.046;2022-09-03T19:42:28;14.20;;;12.80;;
5117;SDS011;2578;51.622;7.046;2022-09-03T19:48:47;13.40;;;12.10;;
5117;SDS011;2578;51.622;7.046;2022-09-03T19:51:39;13.30;;;12.00;;
5117;SDS011;2578;51.622;7.046;2022-09-03T19:54:34;12.80;;;11.50;;
5117;SDS011;2578;51.622;7.046;2022-09-03T19:57:19;12.30;;;11.00;;
5117;SDS011;2578;51.622;7.046;2022-09-03T20:00:05;11.83;;;10.60;;
5117;SDS011;2578;51.622;7.046;2022-09-03T20:02:50;12.43;;;11.13;;
5117;SDS011;2578;51.622;7.046;2022-09-03T20:05:34;12.10;;;10.80;;
5117;SDS011;2578;51.622;7.046;2022-09-03T20:08:20;11.80;;;10.60;;
5117;SDS011;2578;51.622;7.046;2022-09-03T20:11:08;10.77;;;9.00;;
5117;SDS011;2578;51.622;7.046;2022-09-03T20:13:43;10.97;;;9.30;;
5117;SDS011;2578;51.622;7.046;2022-09-03T20:16:34;10.70;;;8.70;;
5117;SDS011;2578;51.622;7.046;2022-09-03T20:19:25;10.37;;;8.10;;
5117;SDS011;2578;51.622;7.046;2022-09-03T20:25:04;10.30;;;7.90;;
5117;SDS011;2578;51.622;7.046;2022-09-03T20:27:44;10.23;;;7.90;;
5117;SDS011;2578;51.622;7.046;2022-09-03T20:55:43;10.00;;;6.30;;
5117;SDS011;2578;51.622;7.046;2022-09-03T21:01:04;9.87;;;6.20;;
5117;SDS011;2578;51.622;7.046;2022-09-03T21:19:23;9.37;;;4.90;;
5117;SDS011;2578;51.622;7.046;2022-09-03T21:24:29;9.23;;;4.60;;
5117;SDS011;2578;51.622;7.046;2022-09-03T21:27:04;9.13;;;4.30;;
5117;SDS011;2578;51.622;7.046;2022-09-03T21:29:38;9.07;;;4.27;;
5117;SDS011;2578;51.622;7.046;2022-09-03T21:32:14;9.20;;;4.20;;
5117;SDS011;2578;51.622;7.046;2022-09-03T21:37:36;9.00;;;3.80;;
5117;SDS011;2578;51.622;7.046;2022-09-03T21:40:03;8.87;;;3.80;;
5117;SDS011;2578;51.622;7.046;2022-09-03T21:42:42;9.00;;;3.80;;
5117;SDS011;2578;51.622;7.046;2022-09-03T21:45:16;8.97;;;3.70;;
5117;SDS011;2578;51.622;7.046;2022-09-03T21:47:54;8.97;;;3.70;;
5117;SDS011;2578;51.622;7.046;2022-09-03T21:50:38;8.90;;;3.57;;
5117;SDS011;2578;51.622;7.046;2022-09-03T21:53:15;9.00;;;3.60;;
5117;SDS011;2578;51.622;7.046;2022-09-03T22:04:22;8.90;;;3.30;;
5117;SDS011;2578;51.622;7.046;2022-09-03T22:09:35;8.87;;;3.17;;
5117;SDS011;2578;51.622;7.046;2022-09-03T22:12:36;8.73;;;3.10;;
5117;SDS011;2578;51.622;7.046;2022-09-03T22:15:07;9.10;;;3.90;;
5117;SDS011;2578;51.622;7.046;2022-09-03T22:18:11;9.00;;;3.90;;
5117;SDS011;2578;51.622;7.046;2022-09-03T22:20:52;9.07;;;3.70;;
5117;SDS011;2578;51.622;7.046;2022-09-03T22:23:32;9.07;;;3.80;;
5117;SDS011;2578;51.622;7.046;2022-09-03T22:26:56;9.20;;;4.13;;
5117;SDS011;2578;51.622;7.046;2022-09-03T22:40:38;8.60;;;2.50;;
5117;SDS011;2578;51.622;7.046;2022-09-03T22:46:05;8.63;;;2.40;;
5117;SDS011;2578;51.622;7.046;2022-09-03T22:51:23;8.63;;;2.53;;
5117;SDS011;2578;51.622;7.046;2022-09-03T22:56:48;8.40;;;2.17;;
5117;SDS011;2578;51.622;7.046;2022-09-03T23:02:02;8.57;;;2.50;;